Tioga, Illinois
Current Conditions -  °F | °C
As of 6:54 PM on Thursday 27 Nov 2014 (Local Time) from KUIN Reporting Station
Clear Clear  
Wind Chill:   Ceiling: Unl
Heat Index: 17°   Visibility: 10mi
Dew Point:   Wind: 7mph
Humidity: 65%   Direction: 70°ENE
Pressure: 30.44"   Gusts: NA
Location:  40.0927°N, 91.2943°W
Report Text: KUIN 280054Z AUTO 07006KT 10SM CLR M08/M14 A3044 RMK AO2 SLP318 T10831139
Loading
Personal Weather Stations






























Interactive Weather Map New forecast layout! Learn more

10-Day Weather Forecast

Advertisements
Track Severe Weather on mobile